sensor_id;sensor_type;location;lat;lon;timestamp;pressure;altitude;pressure_sealevel;temperature;humidity
55277;BME280;41136;51.478;-2.610;2023-06-10T00:00:19;100493.92;;;17.39;100.00
55277;BME280;41136;51.478;-2.610;2023-06-10T00:02:44;100491.86;;;17.49;100.00
55277;BME280;41136;51.478;-2.610;2023-06-10T00:05:09;100494.66;;;17.84;100.00
55277;BME280;41136;51.478;-2.610;2023-06-10T00:07:35;100497.35;;;17.48;100.00
55277;BME280;41136;51.478;-2.610;2023-06-10T00:10:01;100494.98;;;16.90;100.00
55277;BME280;41136;51.478;-2.610;2023-06-10T00:12:26;100493.50;;;16.00;100.00
55277;BME280;41136;51.478;-2.610;2023-06-10T00:14:52;100495.54;;;16.14;100.00
55277;BME280;41136;51.478;-2.610;2023-06-10T00:17:17;100494.44;;;14.83;100.00
55277;BME280;41136;51.478;-2.610;2023-06-10T00:19:43;100494.52;;;16.09;100.00
55277;BME280;41136;51.478;-2.610;2023-06-10T00:22:09;100492.58;;;16.13;100.00
55277;BME280;41136;51.478;-2.610;2023-06-10T00:24:34;100490.28;;;15.81;100.00
55277;BME280;41136;51.478;-2.610;2023-06-10T00:27:00;100482.94;;;16.15;100.00
55277;BME280;41136;51.478;-2.610;2023-06-10T00:29:26;100483.29;;;16.03;100.00
55277;BME280;41136;51.478;-2.610;2023-06-10T00:31:51;100483.25;;;16.06;100.00
55277;BME280;41136;51.478;-2.610;2023-06-10T00:34:17;100481.56;;;16.76;100.00
55277;BME280;41136;51.478;-2.610;2023-06-10T00:39:07;100485.01;;;15.54;100.00
55277;BME280;41136;51.478;-2.610;2023-06-10T00:41:32;100488.63;;;15.50;100.00
55277;BME280;41136;51.478;-2.610;2023-06-10T00:43:58;100484.17;;;17.01;100.00
55277;BME280;41136;51.478;-2.610;2023-06-10T00:46:25;100481.26;;;17.45;99.89
55277;BME280;41136;51.478;-2.610;2023-06-10T00:48:50;100482.86;;;15.84;100.00
55277;BME280;41136;51.478;-2.610;2023-06-10T00:51:15;100484.35;;;16.32;100.00
55277;BME280;41136;51.478;-2.610;2023-06-10T00:53:41;100484.17;;;15.52;100.00
55277;BME280;41136;51.478;-2.610;2023-06-10T00:56:06;100482.38;;;15.16;100.00
55277;BME280;41136;51.478;-2.610;2023-06-10T00:58:30;100477.64;;;14.37;100.00
55277;BME280;41136;51.478;-2.610;2023-06-10T01:00:55;100476.05;;;14.37;100.00
55277;BME280;41136;51.478;-2.610;2023-06-10T01:03:20;100470.90;;;15.66;100.00
55277;BME280;41136;51.478;-2.610;2023-06-10T01:05:50;100470.20;;;16.27;100.00
55277;BME280;41136;51.478;-2.610;2023-06-10T01:08:19;100476.33;;;14.51;100.00
55277;BME280;41136;51.478;-2.610;2023-06-10T01:10:41;100474.23;;;15.82;100.00
55277;BME280;41136;51.478;-2.610;2023-06-10T01:13:03;100480.25;;;16.21;100.00
55277;BME280;41136;51.478;-2.610;2023-06-10T01:15:28;100484.67;;;16.55;100.00
55277;BME280;41136;51.478;-2.610;2023-06-10T01:17:55;100487.32;;;17.41;100.00
55277;BME280;41136;51.478;-2.610;2023-06-10T01:20:19;100482.35;;;16.92;100.00
55277;BME280;41136;51.478;-2.610;2023-06-10T01:22:44;100477.86;;;17.33;100.00
55277;BME280;41136;51.478;-2.610;2023-06-10T01:25:09;100474.71;;;17.58;100.00
55277;BME280;41136;51.478;-2.610;2023-06-10T01:27:37;100473.13;;;17.02;100.00
55277;BME280;41136;51.478;-2.610;2023-06-10T01:30:08;100468.34;;;17.20;100.00
55277;BME280;41136;51.478;-2.610;2023-06-10T01:32:32;100467.66;;;16.87;100.00
55277;BME280;41136;51.478;-2.610;2023-06-10T01:34:50;100467.32;;;17.14;100.00
55277;BME280;41136;51.478;-2.610;2023-06-10T01:37:18;100462.50;;;17.26;100.00
55277;BME280;41136;51.478;-2.610;2023-06-10T01:39:41;100460.63;;;17.37;100.00
55277;BME280;41136;51.478;-2.610;2023-06-10T01:42:06;100459.91;;;16.46;100.00
55277;BME280;41136;51.478;-2.610;2023-06-10T01:44:31;100458.16;;;15.96;100.00
55277;BME280;41136;51.478;-2.610;2023-06-10T01:46:56;100460.57;;;15.74;100.00
55277;BME280;41136;51.478;-2.610;2023-06-10T01:49:22;100461.80;;;14.06;100.00
55277;BME280;41136;51.478;-2.610;2023-06-10T01:51:47;100460.23;;;15.29;100.00
55277;BME280;41136;51.478;-2.610;2023-06-10T01:54:13;100461.64;;;15.08;100.00
55277;BME280;41136;51.478;-2.610;2023-06-10T01:56:38;100460.92;;;15.66;100.00
55277;BME280;41136;51.478;-2.610;2023-06-10T01:59:03;100461.62;;;15.14;100.00
55277;BME280;41136;51.478;-2.610;2023-06-10T02:01:29;100458.22;;;15.96;100.00
55277;BME280;41136;51.478;-2.610;2023-06-10T02:03:54;100457.01;;;15.97;100.00
55277;BME280;41136;51.478;-2.610;2023-06-10T02:06:20;100456.83;;;15.77;100.00
55277;BME280;41136;51.478;-2.610;2023-06-10T02:08:44;100457.42;;;16.29;100.00
55277;BME280;41136;51.478;-2.610;2023-06-10T02:11:10;100453.67;;;15.67;100.00
55277;BME280;41136;51.478;-2.610;2023-06-10T02:13:36;100454.86;;;16.54;100.00
55277;BME280;41136;51.478;-2.610;2023-06-10T02:16:01;100459.46;;;16.21;100.00
55277;BME280;41136;51.478;-2.610;2023-06-10T02:18:26;100462.68;;;16.50;100.00
55277;BME280;41136;51.478;-2.610;2023-06-10T02:20:52;100459.38;;;16.14;100.00
55277;BME280;41136;51.478;-2.610;2023-06-10T02:23:17;100459.81;;;15.77;100.00
55277;BME280;41136;51.478;-2.610;2023-06-10T02:25:42;100462.69;;;16.30;100.00
55277;BME280;41136;51.478;-2.610;2023-06-10T02:28:08;100460.80;;;15.74;100.00
55277;BME280;41136;51.478;-2.610;2023-06-10T02:30:33;100464.06;;;15.98;100.00
55277;BME280;41136;51.478;-2.610;2023-06-10T02:32:58;100466.99;;;15.46;100.00
55277;BME280;41136;51.478;-2.610;2023-06-10T02:35:24;100464.78;;;15.90;100.00
55277;BME280;41136;51.478;-2.610;2023-06-10T02:37:49;100462.60;;;16.06;100.00
55277;BME280;41136;51.478;-2.610;2023-06-10T02:40:15;100457.16;;;15.80;100.00
55277;BME280;41136;51.478;-2.610;2023-06-10T02:42:40;100453.34;;;15.84;100.00
55277;BME280;41136;51.478;-2.610;2023-06-10T02:45:07;100460.41;;;15.49;100.00
55277;BME280;41136;51.478;-2.610;2023-06-10T02:47:31;100461.22;;;15.92;100.00
55277;BME280;41136;51.478;-2.610;2023-06-10T02:49:57;100460.22;;;15.99;100.00
55277;BME280;41136;51.478;-2.610;2023-06-10T02:52:22;100465.88;;;15.24;100.00
55277;BME280;41136;51.478;-2.610;2023-06-10T02:54:47;100469.23;;;15.04;100.00
55277;BME280;41136;51.478;-2.610;2023-06-10T02:57:13;100465.88;;;15.05;100.00
55277;BME280;41136;51.478;-2.610;2023-06-10T02:59:38;100464.16;;;15.81;100.00
55277;BME280;41136;51.478;-2.610;2023-06-10T03:02:04;100462.53;;;15.27;100.00
55277;BME280;41136;51.478;-2.610;2023-06-10T03:04:29;100462.94;;;15.54;100.00
55277;BME280;41136;51.478;-2.610;2023-06-10T03:06:54;100464.46;;;16.28;100.00
55277;BME280;41136;51.478;-2.610;2023-06-10T03:09:20;100465.24;;;15.31;100.00
55277;BME280;41136;51.478;-2.610;2023-06-10T03:11:45;100462.06;;;15.59;100.00
55277;BME280;41136;51.478;-2.610;2023-06-10T03:14:10;100456.97;;;16.29;100.00
55277;BME280;41136;51.478;-2.610;2023-06-10T03:16:35;100457.38;;;16.57;100.00
55277;BME280;41136;51.478;-2.610;2023-06-10T03:21:21;100449.61;;;16.01;100.00
55277;BME280;41136;51.478;-2.610;2023-06-10T03:23:45;100452.15;;;15.88;100.00
55277;BME280;41136;51.478;-2.610;2023-06-10T03:26:11;100451.68;;;15.49;100.00
55277;BME280;41136;51.478;-2.610;2023-06-10T03:28:36;100447.37;;;15.73;100.00
55277;BME280;41136;51.478;-2.610;2023-06-10T03:31:01;100450.36;;;16.52;100.00
55277;BME280;41136;51.478;-2.610;2023-06-10T03:33:26;100453.83;;;16.42;100.00
55277;BME280;41136;51.478;-2.610;2023-06-10T03:35:52;100454.64;;;16.93;100.00
55277;BME280;41136;51.478;-2.610;2023-06-10T03:38:17;100455.53;;;16.36;100.00
55277;BME280;41136;51.478;-2.610;2023-06-10T03:40:43;100452.30;;;16.41;100.00
55277;BME280;41136;51.478;-2.610;2023-06-10T03:43:08;100447.79;;;16.16;100.00
55277;BME280;41136;51.478;-2.610;2023-06-10T03:45:34;100442.73;;;15.39;100.00
55277;BME280;41136;51.478;-2.610;2023-06-10T03:47:59;100443.77;;;15.80;100.00
55277;BME280;41136;51.478;-2.610;2023-06-10T03:50:24;100449.24;;;16.14;100.00
55277;BME280;41136;51.478;-2.610;2023-06-10T03:52:50;100448.38;;;15.61;100.00
55277;BME280;41136;51.478;-2.610;2023-06-10T03:55:15;100448.28;;;15.91;100.00
55277;BME280;41136;51.478;-2.610;2023-06-10T03:57:40;100450.34;;;16.39;100.00
55277;BME280;41136;51.478;-2.610;2023-06-10T04:00:07;100451.53;;;16.54;100.00
55277;BME280;41136;51.478;-2.610;2023-06-10T04:02:32;100455.49;;;15.13;100.00
55277;BME280;41136;51.478;-2.610;2023-06-10T04:04:57;100457.74;;;16.34;100.00
55277;BME280;41136;51.478;-2.610;2023-06-10T04:07:23;100459.66;;;16.32;100.00
55277;BME280;41136;51.478;-2.610;2023-06-10T04:09:49;100459.23;;;16.67;100.00
55277;BME280;41136;51.478;-2.610;2023-06-10T04:12:14;100456.02;;;16.41;100.00
55277;BME280;41136;51.478;-2.610;2023-06-10T04:14:40;100448.53;;;16.09;100.00
55277;BME280;41136;51.478;-2.610;2023-06-10T04:17:06;100445.43;;;16.02;100.00
55277;BME280;41136;51.478;-2.610;2023-06-10T04:19:31;100450.58;;;16.39;100.00
55277;BME280;41136;51.478;-2.610;2023-06-10T04:21:57;100448.36;;;16.01;100.00
55277;BME280;41136;51.478;-2.610;2023-06-10T04:24:22;100447.75;;;16.04;100.00
55277;BME280;41136;51.478;-2.610;2023-06-10T04:26:48;100445.50;;;15.69;100.00
55277;BME280;41136;51.478;-2.610;2023-06-10T04:29:13;100451.24;;;14.64;100.00
55277;BME280;41136;51.478;-2.610;2023-06-10T04:31:38;100458.95;;;14.33;100.00
55277;BME280;41136;51.478;-2.610;2023-06-10T04:34:04;100460.59;;;14.64;100.00
55277;BME280;41136;51.478;-2.610;2023-06-10T04:36:30;100458.38;;;14.99;100.00
55277;BME280;41136;51.478;-2.610;2023-06-10T04:38:55;100457.68;;;13.54;100.00
55277;BME280;41136;51.478;-2.610;2023-06-10T04:41:20;100461.49;;;14.22;100.00
55277;BME280;41136;51.478;-2.610;2023-06-10T04:43:45;100458.48;;;14.96;100.00
55277;BME280;41136;51.478;-2.610;2023-06-10T04:46:11;100455.04;;;13.98;100.00
55277;BME280;41136;51.478;-2.610;2023-06-10T04:48:37;100454.48;;;14.84;100.00
55277;BME280;41136;51.478;-2.610;2023-06-10T04:51:02;100454.52;;;14.85;100.00
55277;BME280;41136;51.478;-2.610;2023-06-10T04:53:27;100453.69;;;15.82;100.00
55277;BME280;41136;51.478;-2.610;2023-06-10T04:55:53;100448.46;;;16.05;100.00
55277;BME280;41136;51.478;-2.610;2023-06-10T04:58:18;100445.55;;;16.01;100.00
55277;BME280;41136;51.478;-2.610;2023-06-10T05:00:44;100447.52;;;16.00;100.00
55277;BME280;41136;51.478;-2.610;2023-06-10T05:03:10;100447.27;;;15.94;100.00
55277;BME280;41136;51.478;-2.610;2023-06-10T05:05:35;100449.35;;;15.91;100.00
55277;BME280;41136;51.478;-2.610;2023-06-10T05:08:00;100445.79;;;15.78;100.00
55277;BME280;41136;51.478;-2.610;2023-06-10T05:10:26;100447.68;;;15.91;100.00
55277;BME280;41136;51.478;-2.610;2023-06-10T05:12:51;100451.26;;;15.55;100.00
55277;BME280;41136;51.478;-2.610;2023-06-10T05:15:17;100449.99;;;16.49;100.00
55277;BME280;41136;51.478;-2.610;2023-06-10T05:17:42;100452.31;;;15.52;100.00
55277;BME280;41136;51.478;-2.610;2023-06-10T05:20:09;100450.74;;;16.18;100.00
55277;BME280;41136;51.478;-2.610;2023-06-10T05:22:33;100450.74;;;15.87;100.00
55277;BME280;41136;51.478;-2.610;2023-06-10T05:24:58;100457.71;;;15.66;100.00
55277;BME280;41136;51.478;-2.610;2023-06-10T05:27:24;100460.34;;;15.80;100.00
55277;BME280;41136;51.478;-2.610;2023-06-10T05:29:49;100461.35;;;15.88;100.00
55277;BME280;41136;51.478;-2.610;2023-06-10T05:32:14;100463.44;;;16.36;100.00
55277;BME280;41136;51.478;-2.610;2023-06-10T05:34:39;100465.74;;;16.38;100.00
55277;BME280;41136;51.478;-2.610;2023-06-10T05:37:05;100462.90;;;16.65;100.00
55277;BME280;41136;51.478;-2.610;2023-06-10T05:39:30;100464.08;;;16.74;100.00
55277;BME280;41136;51.478;-2.610;2023-06-10T05:41:56;100463.61;;;15.40;100.00
55277;BME280;41136;51.478;-2.610;2023-06-10T05:44:22;100463.52;;;16.17;100.00
55277;BME280;41136;51.478;-2.610;2023-06-10T05:46:47;100464.50;;;16.23;100.00
55277;BME280;41136;51.478;-2.610;2023-06-10T05:49:12;100469.38;;;15.40;100.00
55277;BME280;41136;51.478;-2.610;2023-06-10T05:51:37;100470.54;;;15.23;100.00
55277;BME280;41136;51.478;-2.610;2023-06-10T05:54:03;100470.89;;;15.17;100.00
55277;BME280;41136;51.478;-2.610;2023-06-10T05:56:28;100471.74;;;16.06;100.00
55277;BME280;41136;51.478;-2.610;2023-06-10T05:58:53;100473.92;;;14.27;100.00
55277;BME280;41136;51.478;-2.610;2023-06-10T06:01:18;100474.65;;;14.82;100.00
55277;BME280;41136;51.478;-2.610;2023-06-10T06:03:44;100480.78;;;16.11;100.00
55277;BME280;41136;51.478;-2.610;2023-06-10T06:06:09;100488.02;;;16.40;100.00
55277;BME280;41136;51.478;-2.610;2023-06-10T06:08:34;100483.66;;;16.88;100.00
55277;BME280;41136;51.478;-2.610;2023-06-10T06:11:00;100489.66;;;17.45;100.00
55277;BME280;41136;51.478;-2.610;2023-06-10T06:13:25;100491.47;;;16.63;100.00
55277;BME280;41136;51.478;-2.610;2023-06-10T06:15:51;100489.65;;;16.55;100.00
55277;BME280;41136;51.478;-2.610;2023-06-10T06:18:17;100489.48;;;15.37;100.00
55277;BME280;41136;51.478;-2.610;2023-06-10T06:20:42;100492.89;;;15.83;100.00
55277;BME280;41136;51.478;-2.610;2023-06-10T06:23:08;100495.23;;;16.09;100.00
55277;BME280;41136;51.478;-2.610;2023-06-10T06:25:33;100504.02;;;16.24;100.00
55277;BME280;41136;51.478;-2.610;2023-06-10T06:27:58;100508.03;;;16.05;100.00
55277;BME280;41136;51.478;-2.610;2023-06-10T06:30:24;100506.86;;;17.00;100.00
55277;BME280;41136;51.478;-2.610;2023-06-10T06:32:49;100506.65;;;17.03;100.00
55277;BME280;41136;51.478;-2.610;2023-06-10T06:35:14;100506.24;;;16.29;100.00
55277;BME280;41136;51.478;-2.610;2023-06-10T06:37:40;100505.02;;;16.17;100.00
55277;BME280;41136;51.478;-2.610;2023-06-10T06:40:06;100507.36;;;16.08;100.00
55277;BME280;41136;51.478;-2.610;2023-06-10T06:42:30;100504.15;;;17.06;100.00
55277;BME280;41136;51.478;-2.610;2023-06-10T06:44:56;100505.79;;;16.30;100.00
55277;BME280;41136;51.478;-2.610;2023-06-10T06:47:21;100500.84;;;13.62;100.00
55277;BME280;41136;51.478;-2.610;2023-06-10T06:49:47;100502.73;;;15.90;100.00
55277;BME280;41136;51.478;-2.610;2023-06-10T06:52:12;100499.58;;;15.68;100.00
55277;BME280;41136;51.478;-2.610;2023-06-10T06:54:38;100500.68;;;16.70;100.00
55277;BME280;41136;51.478;-2.610;2023-06-10T06:57:03;100498.41;;;15.66;100.00
55277;BME280;41136;51.478;-2.610;2023-06-10T06:59:28;100497.23;;;15.56;100.00
55277;BME280;41136;51.478;-2.610;2023-06-10T07:01:54;100494.31;;;17.27;100.00
55277;BME280;41136;51.478;-2.610;2023-06-10T07:04:19;100495.13;;;16.77;100.00
55277;BME280;41136;51.478;-2.610;2023-06-10T07:06:44;100495.79;;;17.14;100.00
55277;BME280;41136;51.478;-2.610;2023-06-10T07:09:10;100494.13;;;16.92;100.00
55277;BME280;41136;51.478;-2.610;2023-06-10T07:11:35;100491.35;;;16.91;100.00
55277;BME280;41136;51.478;-2.610;2023-06-10T07:14:01;100496.49;;;17.71;100.00
55277;BME280;41136;51.478;-2.610;2023-06-10T07:16:26;100488.73;;;17.19;100.00
55277;BME280;41136;51.478;-2.610;2023-06-10T07:18:52;100491.25;;;17.42;100.00
55277;BME280;41136;51.478;-2.610;2023-06-10T07:21:17;100493.58;;;17.16;100.00
55277;BME280;41136;51.478;-2.610;2023-06-10T07:23:42;100493.92;;;17.75;100.00
55277;BME280;41136;51.478;-2.610;2023-06-10T07:26:08;100494.94;;;17.90;100.00
55277;BME280;41136;51.478;-2.610;2023-06-10T07:28:34;100494.38;;;17.40;100.00
55277;BME280;41136;51.478;-2.610;2023-06-10T07:30:59;100491.85;;;16.91;100.00
55277;BME280;41136;51.478;-2.610;2023-06-10T07:33:25;100489.90;;;17.53;100.00
55277;BME280;41136;51.478;-2.610;2023-06-10T07:35:51;100489.97;;;18.31;100.00
55277;BME280;41136;51.478;-2.610;2023-06-10T07:38:17;100488.26;;;18.95;99.34
55277;BME280;41136;51.478;-2.610;2023-06-10T07:40:42;100487.99;;;18.47;99.78
55277;BME280;41136;51.478;-2.610;2023-06-10T07:43:07;100485.56;;;18.53;99.30
55277;BME280;41136;51.478;-2.610;2023-06-10T07:45:32;100487.41;;;19.17;98.97
55277;BME280;41136;51.478;-2.610;2023-06-10T07:47:57;100490.67;;;19.21;97.06
55277;BME280;41136;51.478;-2.610;2023-06-10T07:50:22;100494.88;;;17.09;100.00
55277;BME280;41136;51.478;-2.610;2023-06-10T07:52:48;100490.77;;;16.57;100.00
55277;BME280;41136;51.478;-2.610;2023-06-10T07:55:13;100495.33;;;17.33;100.00
55277;BME280;41136;51.478;-2.610;2023-06-10T07:57:39;100500.42;;;18.60;100.00
55277;BME280;41136;51.478;-2.610;2023-06-10T08:00:06;100501.58;;;16.64;100.00
55277;BME280;41136;51.478;-2.610;2023-06-10T08:02:30;100506.36;;;15.06;100.00
55277;BME280;41136;51.478;-2.610;2023-06-10T08:04:55;100505.65;;;15.42;100.00
55277;BME280;41136;51.478;-2.610;2023-06-10T08:07:21;100502.12;;;16.46;100.00
55277;BME280;41136;51.478;-2.610;2023-06-10T08:09:47;100498.60;;;18.33;100.00
55277;BME280;41136;51.478;-2.610;2023-06-10T08:12:12;100497.28;;;18.84;100.00
55277;BME280;41136;51.478;-2.610;2023-06-10T08:14:38;100494.06;;;18.90;100.00
55277;BME280;41136;51.478;-2.610;2023-06-10T08:17:03;100496.81;;;18.90;98.16
55277;BME280;41136;51.478;-2.610;2023-06-10T08:19:28;100493.33;;;17.58;100.00
55277;BME280;41136;51.478;-2.610;2023-06-10T08:21:53;100493.91;;;18.37;100.00
55277;BME280;41136;51.478;-2.610;2023-06-10T08:24:19;100492.80;;;17.72;100.00
55277;BME280;41136;51.478;-2.610;2023-06-10T08:26:44;100494.88;;;18.85;97.55
55277;BME280;41136;51.478;-2.610;2023-06-10T08:29:12;100493.90;;;20.18;94.28
55277;BME280;41136;51.478;-2.610;2023-06-10T08:31:35;100501.38;;;19.24;95.72
55277;BME280;41136;51.478;-2.610;2023-06-10T08:34:00;100493.03;;;20.60;92.84
55277;BME280;41136;51.478;-2.610;2023-06-10T08:36:26;100495.95;;;17.48;99.38
55277;BME280;41136;51.478;-2.610;2023-06-10T08:38:51;100494.27;;;17.51;100.00
55277;BME280;41136;51.478;-2.610;2023-06-10T08:41:17;100489.70;;;18.34;98.59
55277;BME280;41136;51.478;-2.610;2023-06-10T08:43:45;100487.02;;;19.95;94.90
55277;BME280;41136;51.478;-2.610;2023-06-10T08:46:09;100489.10;;;19.84;92.93
55277;BME280;41136;51.478;-2.610;2023-06-10T08:48:34;100491.78;;;20.75;91.97
55277;BME280;41136;51.478;-2.610;2023-06-10T08:50:58;100488.30;;;18.65;96.21
55277;BME280;41136;51.478;-2.610;2023-06-10T08:53:24;100483.26;;;19.12;96.98
55277;BME280;41136;51.478;-2.610;2023-06-10T08:55:51;100485.30;;;18.93;95.46
55277;BME280;41136;51.478;-2.610;2023-06-10T08:58:14;100475.20;;;19.36;94.21
55277;BME280;41136;51.478;-2.610;2023-06-10T09:00:40;100473.01;;;19.33;94.88
55277;BME280;41136;51.478;-2.610;2023-06-10T09:03:05;100479.95;;;18.02;100.00
55277;BME280;41136;51.478;-2.610;2023-06-10T09:05:33;100474.28;;;18.59;100.00
55277;BME280;41136;51.478;-2.610;2023-06-10T09:07:57;100465.15;;;20.36;94.85
55277;BME280;41136;51.478;-2.610;2023-06-10T09:10:22;100465.80;;;19.45;94.48
55277;BME280;41136;51.478;-2.610;2023-06-10T09:12:47;100466.09;;;20.90;90.78
55277;BME280;41136;51.478;-2.610;2023-06-10T09:15:13;100461.71;;;21.17;88.95
55277;BME280;41136;51.478;-2.610;2023-06-10T09:17:39;100456.53;;;21.76;86.21
55277;BME280;41136;51.478;-2.610;2023-06-10T09:20:05;100455.55;;;21.21;86.62
55277;BME280;41136;51.478;-2.610;2023-06-10T09:22:29;100459.48;;;20.20;89.89
55277;BME280;41136;51.478;-2.610;2023-06-10T09:25:03;100456.99;;;20.71;89.12
55277;BME280;41136;51.478;-2.610;2023-06-10T09:27:20;100454.17;;;21.17;89.06
55277;BME280;41136;51.478;-2.610;2023-06-10T09:29:46;100449.76;;;21.90;86.43
55277;BME280;41136;51.478;-2.610;2023-06-10T09:32:11;100446.18;;;21.22;87.19
55277;BME280;41136;51.478;-2.610;2023-06-10T09:34:37;100440.59;;;19.77;88.48
55277;BME280;41136;51.478;-2.610;2023-06-10T09:37:03;100449.17;;;20.81;90.33
55277;BME280;41136;51.478;-2.610;2023-06-10T09:39:28;100447.50;;;21.37;89.03
55277;BME280;41136;51.478;-2.610;2023-06-10T09:41:53;100452.63;;;22.11;84.38
55277;BME280;41136;51.478;-2.610;2023-06-10T09:44:20;100452.74;;;21.20;84.82
55277;BME280;41136;51.478;-2.610;2023-06-10T09:46:45;100455.36;;;23.46;80.80
55277;BME280;41136;51.478;-2.610;2023-06-10T09:49:09;100454.89;;;23.36;78.34
55277;BME280;41136;51.478;-2.610;2023-06-10T09:51:34;100459.07;;;21.38;80.48
55277;BME280;41136;51.478;-2.610;2023-06-10T09:54:02;100454.09;;;21.11;87.66
55277;BME280;41136;51.478;-2.610;2023-06-10T09:56:33;100455.34;;;19.66;89.57
55277;BME280;41136;51.478;-2.610;2023-06-10T09:58:53;100457.10;;;21.53;88.97
55277;BME280;41136;51.478;-2.610;2023-06-10T10:01:15;100459.92;;;22.23;86.14
55277;BME280;41136;51.478;-2.610;2023-06-10T10:03:44;100456.95;;;22.97;81.28
55277;BME280;41136;51.478;-2.610;2023-06-10T10:06:06;100456.74;;;23.95;78.25
55277;BME280;41136;51.478;-2.610;2023-06-10T10:08:31;100458.53;;;22.66;77.30
55277;BME280;41136;51.478;-2.610;2023-06-10T10:10:57;100457.31;;;23.93;77.51
55277;BME280;41136;51.478;-2.610;2023-06-10T10:13:24;100454.78;;;24.54;73.61
55277;BME280;41136;51.478;-2.610;2023-06-10T10:15:48;100459.58;;;24.58;71.26
55277;BME280;41136;51.478;-2.610;2023-06-10T10:18:17;100459.99;;;23.93;71.99
55277;BME280;41136;51.478;-2.610;2023-06-10T10:20:44;100455.78;;;24.41;72.66
55277;BME280;41136;51.478;-2.610;2023-06-10T10:23:05;100448.28;;;24.76;71.76
55277;BME280;41136;51.478;-2.610;2023-06-10T10:25:34;100456.65;;;23.78;72.89
55277;BME280;41136;51.478;-2.610;2023-06-10T10:27:58;100457.81;;;24.48;70.24
55277;BME280;41136;51.478;-2.610;2023-06-10T10:30:21;100457.63;;;23.35;74.92
55277;BME280;41136;51.478;-2.610;2023-06-10T10:32:54;100447.10;;;24.91;70.37
55277;BME280;41136;51.478;-2.610;2023-06-10T10:35:14;100449.83;;;25.11;70.57
55277;BME280;41136;51.478;-2.610;2023-06-10T10:37:36;100443.78;;;25.29;68.84
55277;BME280;41136;51.478;-2.610;2023-06-10T10:40:04;100440.53;;;27.06;63.82
55277;BME280;41136;51.478;-2.610;2023-06-10T10:42:28;100445.93;;;25.72;66.69
55277;BME280;41136;51.478;-2.610;2023-06-10T10:44:54;100447.10;;;26.50;64.20
55277;BME280;41136;51.478;-2.610;2023-06-10T10:47:21;100448.57;;;26.35;64.10
55277;BME280;41136;51.478;-2.610;2023-06-10T10:49:46;100453.36;;;24.14;67.39
55277;BME280;41136;51.478;-2.610;2023-06-10T10:52:11;100451.41;;;24.41;67.94
55277;BME280;41136;51.478;-2.610;2023-06-10T10:54:36;100452.94;;;24.86;68.73
55277;BME280;41136;51.478;-2.610;2023-06-10T10:57:09;100445.91;;;25.86;66.99
55277;BME280;41136;51.478;-2.610;2023-06-10T11:01:53;100441.98;;;25.76;64.28
55277;BME280;41136;51.478;-2.610;2023-06-10T11:04:19;100441.04;;;26.91;64.54
55277;BME280;41136;51.478;-2.610;2023-06-10T11:06:52;100442.27;;;27.66;62.38
55277;BME280;41136;51.478;-2.610;2023-06-10T11:11:34;100441.85;;;24.00;68.40
55277;BME280;41136;51.478;-2.610;2023-06-10T11:14:06;100437.45;;;24.02;71.55
55277;BME280;41136;51.478;-2.610;2023-06-10T11:16:27;100435.01;;;23.96;72.16
55277;BME280;41136;51.478;-2.610;2023-06-10T11:18:53;100434.90;;;26.13;66.60
55277;BME280;41136;51.478;-2.610;2023-06-10T11:21:17;100432.81;;;27.02;64.41
55277;BME280;41136;51.478;-2.610;2023-06-10T11:23:42;100433.21;;;27.43;61.90
55277;BME280;41136;51.478;-2.610;2023-06-10T11:26:13;100430.83;;;26.79;62.33
55277;BME280;41136;51.478;-2.610;2023-06-10T11:28:32;100431.15;;;24.43;65.33
55277;BME280;41136;51.478;-2.610;2023-06-10T11:30:58;100435.89;;;23.11;73.38
55277;BME280;41136;51.478;-2.610;2023-06-10T11:33:24;100429.64;;;25.11;71.03
55277;BME280;41136;51.478;-2.610;2023-06-10T11:35:50;100428.21;;;25.08;67.45
55277;BME280;41136;51.478;-2.610;2023-06-10T11:38:14;100433.38;;;23.98;70.36
55277;BME280;41136;51.478;-2.610;2023-06-10T11:40:39;100431.92;;;24.44;69.99
55277;BME280;41136;51.478;-2.610;2023-06-10T11:43:05;100437.14;;;23.21;75.30
55277;BME280;41136;51.478;-2.610;2023-06-10T11:45:31;100433.55;;;24.71;72.51
55277;BME280;41136;51.478;-2.610;2023-06-10T11:47:57;100426.00;;;25.61;68.20
55277;BME280;41136;51.478;-2.610;2023-06-10T11:50:28;100430.81;;;25.84;66.10
55277;BME280;41136;51.478;-2.610;2023-06-10T11:52:48;100431.52;;;24.77;66.78
55277;BME280;41136;51.478;-2.610;2023-06-10T11:55:14;100424.34;;;25.53;65.98
55277;BME280;41136;51.478;-2.610;2023-06-10T11:57:40;100424.65;;;27.39;64.52
55277;BME280;41136;51.478;-2.610;2023-06-10T12:00:06;100427.36;;;27.81;60.99
55277;BME280;41136;51.478;-2.610;2023-06-10T12:02:30;100430.74;;;27.29;59.88
55277;BME280;41136;51.478;-2.610;2023-06-10T12:07:22;100430.51;;;28.49;57.23
55277;BME280;41136;51.478;-2.610;2023-06-10T12:12:14;100437.13;;;28.70;54.47
55277;BME280;41136;51.478;-2.610;2023-06-10T12:17:04;100439.95;;;28.74;54.43
55277;BME280;41136;51.478;-2.610;2023-06-10T12:19:29;100439.90;;;28.84;53.42
55277;BME280;41136;51.478;-2.610;2023-06-10T12:21:54;100439.23;;;29.02;52.55
55277;BME280;41136;51.478;-2.610;2023-06-10T12:24:20;100432.17;;;27.41;53.68
55277;BME280;41136;51.478;-2.610;2023-06-10T12:26:45;100425.58;;;27.78;55.65
55277;BME280;41136;51.478;-2.610;2023-06-10T12:29:19;100425.26;;;26.43;56.72
55277;BME280;41136;51.478;-2.610;2023-06-10T12:34:08;100421.29;;;27.30;57.58
55277;BME280;41136;51.478;-2.610;2023-06-10T12:36:28;100420.48;;;28.47;54.30
55277;BME280;41136;51.478;-2.610;2023-06-10T12:39:02;100422.14;;;28.56;54.73
55277;BME280;41136;51.478;-2.610;2023-06-10T12:41:19;100426.88;;;28.68;53.28